Terminal Aerodrome Forecast
Issued by NWS Missoula, MT

Home | Current Version | Previous Version | Text Only | Print | Product List | Glossary On
Versions: 1 2 3 4 5 6 7 8 9 10 11 12 13 14 15 16 17 18
384
FTUS45 KMSO 131721
TAFGPI
TAF
KGPI 131721Z 1318/1418 00000KT 3SM -SN BR SCT005 OVC020
      TEMPO 1318/1319 1SM -SN BR BKN008
     FM131900 VRB03KT 4SM BR BKN013 BKN050
     FM132100 VRB03KT P6SM SCT015 BKN070
     FM141000 00000KT 5SM BR OVC007=

USA.gov is the U.S. government's official web portal to all federal, state and local government web resources and services.